• Join FlightAware (Why Join?)
  • Login
  • US Flag 
08:46AM EDT


 

Airport Tracker/Info


-or-


 

Live Flight TrackerFlight Track Log ✈ PDT4207 ✈ 27-Oct-2013 ✈ KPHL - KBGM

Flight Track Log - Related Links

Times and Time Zones

All times are in EDT time to prevent confusion due to time zone crossing. See the PDT4207 flight status page for this flight to view local times or setup timezone preferences in your user account.

Time Position Orientation Groundspeed Altitude Reporting Facility
EDT Latitude Longitude Course Direction KTS MPH feet Rate Location/Type
09:30PM 39.9000 -75.2333 339° North 111 128 800  Level Philadelphia TRACON
09:31PM 39.9333 -75.2500 339° North 128 147 2,500 1,320 Climbing Philadelphia TRACON
09:32PM 39.9667 -75.2500 360° North 165 190 3,500 780 Climbing Philadelphia TRACON
09:33PM 40.0167 -75.2500 360° North 201 231 4,000 180 Climbing Philadelphia TRACON
09:34PM 40.0833 -75.2833 339° North 210 242 4,000  Level Philadelphia TRACON
09:35PM 40.1333 -75.3000 346° North 214 246 4,000  Level Philadelphia TRACON
09:36PM 40.2000 -75.3167 349° North 216 249 4,000  Level Philadelphia TRACON
09:37PM 40.2500 -75.3333 346° North 214 246 4,000  Level Philadelphia TRACON
09:38PM 40.3000 -75.3500 346° North 215 247 4,000  Level Philadelphia TRACON
09:40PM 40.4182 -75.3763 350° North  Level FlightAware Approximate
09:47PM 40.8924 -75.4500 North  Level FlightAware Approximate
09:48PM 40.9608 -75.4500 North  Level FlightAware Approximate
09:49PM 41.0293 -75.4500 North  Level FlightAware Approximate
09:50PM 41.0977 -75.4549 357° North  Level FlightAware Approximate
09:51PM 41.1661 -75.4602 357° North  Level FlightAware Approximate
09:52PM 41.2345 -75.4655 357° North  Level FlightAware Approximate
09:53PM 41.3029 -75.4667 North  Level FlightAware Approximate
09:54PM 41.3714 -75.4667 North  Level FlightAware Approximate
09:55PM 41.4399 -75.4667 North  Level FlightAware Approximate
09:56PM 41.5001 -75.4999 323° Northwest  Level FlightAware Approximate
09:57PM 41.5550 -75.5547 323° Northwest  Level FlightAware Approximate
09:58PM 41.6098 -75.6095 323° Northwest  Level FlightAware Approximate
09:59PM 41.6646 -75.6645 323° Northwest  Level FlightAware Approximate
10:00PM 41.7195 -75.7193 326° Northwest  Level FlightAware Approximate
10:01PM 41.7760 -75.7712 326° Northwest  Level FlightAware Approximate
10:02PM 41.8324 -75.8233 326° Northwest  Level FlightAware Approximate
10:03PM 41.8888 -75.8754 325° Northwest  Level FlightAware Approximate
10:04PM 41.9449 -75.9282 323° Northwest  Level FlightAware Approximate
10:05PM 41.9999 -75.9831 323° Northwest  Level FlightAware Approximate
10:06PM 42.0549 -76.0381 323° Northwest  Level FlightAware Approximate
10:07PM 42.1098 -76.0931 323° Northwest  Level FlightAware Approximate
10:08PM 42.1500 -76.1084 90° East  Level FlightAware Approximate
10:09PM 42.1864 -76.0341 62° Northeast  Level FlightAware Approximate
10:10PM 42.2000 -75.9667 90° East  Level FlightAware Approximate
10:11PM 42.2084 -75.9796 90° East  Level Estimated
10:12PM 42.2084 -75.9796 90° East  Level Estimated
10:13PM 42.2084 -75.9796 90° East  Level Estimated
10:14PM 42.2084 -75.9796 90° East  Level Estimated
10:15PM 42.2084 -75.9796 90° East  Level Estimated
10:16PM 42.2084 -75.9796 90° East  Level Estimated
10:17PM 42.2084 -75.9796 90° East  Level Estimated